sensor_id;sensor_type;location;lat;lon;timestamp;pressure;altitude;pressure_sealevel;temperature;humidity
30516;BME280;17297;54.022;10.760;2023-05-15T00:01:20;101374.56;;;16.22;60.00
30516;BME280;17297;54.022;10.760;2023-05-15T00:03:46;101367.66;;;16.20;60.09
30516;BME280;17297;54.022;10.760;2023-05-15T00:06:12;101372.06;;;16.21;60.07
30516;BME280;17297;54.022;10.760;2023-05-15T00:08:38;101372.50;;;16.17;60.14
30516;BME280;17297;54.022;10.760;2023-05-15T00:11:03;101367.50;;;16.14;59.99
30516;BME280;17297;54.022;10.760;2023-05-15T00:13:28;101361.25;;;16.14;59.90
30516;BME280;17297;54.022;10.760;2023-05-15T00:15:54;101375.84;;;16.13;59.77
30516;BME280;17297;54.022;10.760;2023-05-15T00:18:19;101364.59;;;16.09;59.93
30516;BME280;17297;54.022;10.760;2023-05-15T00:20:45;101364.81;;;16.08;60.10
30516;BME280;17297;54.022;10.760;2023-05-15T00:23:10;101353.31;;;16.06;60.01
30516;BME280;17297;54.022;10.760;2023-05-15T00:25:35;101356.25;;;16.04;59.95
30516;BME280;17297;54.022;10.760;2023-05-15T00:28:01;101347.50;;;16.02;59.89
30516;BME280;17297;54.022;10.760;2023-05-15T00:30:27;101354.81;;;16.02;59.94
30516;BME280;17297;54.022;10.760;2023-05-15T00:32:53;101355.00;;;16.00;60.07
30516;BME280;17297;54.022;10.760;2023-05-15T00:35:18;101356.25;;;15.98;60.06
30516;BME280;17297;54.022;10.760;2023-05-15T00:37:44;101346.69;;;15.95;60.05
30516;BME280;17297;54.022;10.760;2023-05-15T00:40:11;101352.31;;;15.93;59.98
30516;BME280;17297;54.022;10.760;2023-05-15T00:42:39;101352.56;;;15.92;60.08
30516;BME280;17297;54.022;10.760;2023-05-15T00:45:08;101350.88;;;15.91;60.07
30516;BME280;17297;54.022;10.760;2023-05-15T00:47:34;101342.97;;;15.89;60.15
30516;BME280;17297;54.022;10.760;2023-05-15T00:50:00;101356.72;;;15.88;60.13
30516;BME280;17297;54.022;10.760;2023-05-15T00:52:27;101356.94;;;15.86;60.12
30516;BME280;17297;54.022;10.760;2023-05-15T00:54:53;101347.34;;;15.84;60.14
30516;BME280;17297;54.022;10.760;2023-05-15T00:57:20;101346.72;;;15.82;60.08
30516;BME280;17297;54.022;10.760;2023-05-15T00:59:46;101339.84;;;15.79;60.16
30516;BME280;17297;54.022;10.760;2023-05-15T01:02:14;101342.78;;;15.78;60.27
30516;BME280;17297;54.022;10.760;2023-05-15T01:04:41;101331.53;;;15.74;60.17
30516;BME280;17297;54.022;10.760;2023-05-15T01:07:06;101342.56;;;15.73;60.13
30516;BME280;17297;54.022;10.760;2023-05-15T01:09:32;101340.09;;;15.71;59.96
30516;BME280;17297;54.022;10.760;2023-05-15T01:11:59;101335.09;;;15.68;60.16
30516;BME280;17297;54.022;10.760;2023-05-15T01:14:24;101336.13;;;15.67;60.06
30516;BME280;17297;54.022;10.760;2023-05-15T01:16:50;101341.72;;;15.65;60.18
30516;BME280;17297;54.022;10.760;2023-05-15T01:19:15;101337.34;;;15.64;60.17
30516;BME280;17297;54.022;10.760;2023-05-15T01:27:49;101332.16;;;15.56;60.25
30516;BME280;17297;54.022;10.760;2023-05-15T01:30:30;101332.56;;;15.53;60.13
30516;BME280;17297;54.022;10.760;2023-05-15T01:35:52;101328.63;;;15.49;60.23
30516;BME280;17297;54.022;10.760;2023-05-15T01:38:38;101328.00;;;15.47;60.21
30516;BME280;17297;54.022;10.760;2023-05-15T01:41:15;101325.50;;;15.45;60.21
30516;BME280;17297;54.022;10.760;2023-05-15T01:43:47;101319.22;;;15.45;60.34
30516;BME280;17297;54.022;10.760;2023-05-15T01:46:18;101320.09;;;15.45;60.22
30516;BME280;17297;54.022;10.760;2023-05-15T01:48:47;101310.28;;;15.44;60.27
30516;BME280;17297;54.022;10.760;2023-05-15T01:51:14;101320.28;;;15.44;60.35
30516;BME280;17297;54.022;10.760;2023-05-15T01:53:41;101308.81;;;15.42;60.48
30516;BME280;17297;54.022;10.760;2023-05-15T01:56:08;101312.38;;;15.42;60.60
30516;BME280;17297;54.022;10.760;2023-05-15T01:58:35;101309.66;;;15.42;60.55
30516;BME280;17297;54.022;10.760;2023-05-15T02:01:01;101306.72;;;15.44;60.60
30516;BME280;17297;54.022;10.760;2023-05-15T02:03:28;101300.47;;;15.43;60.79
30516;BME280;17297;54.022;10.760;2023-05-15T02:05:57;101300.25;;;15.45;60.65
30516;BME280;17297;54.022;10.760;2023-05-15T02:08:24;101297.34;;;15.46;60.78
30516;BME280;17297;54.022;10.760;2023-05-15T02:10:56;101293.81;;;15.46;60.90
30516;BME280;17297;54.022;10.760;2023-05-15T02:13:24;101296.50;;;15.46;60.83
30516;BME280;17297;54.022;10.760;2023-05-15T02:15:49;101289.22;;;15.46;60.96
30516;BME280;17297;54.022;10.760;2023-05-15T02:18:14;101292.75;;;15.47;61.18
30516;BME280;17297;54.022;10.760;2023-05-15T02:20:40;101287.56;;;15.45;60.92
30516;BME280;17297;54.022;10.760;2023-05-15T02:23:05;101276.72;;;15.45;60.95
30516;BME280;17297;54.022;10.760;2023-05-15T02:28:06;101281.28;;;15.52;60.64
30516;BME280;17297;54.022;10.760;2023-05-15T02:33:11;101279.41;;;15.45;60.83
30516;BME280;17297;54.022;10.760;2023-05-15T02:38:10;101277.97;;;15.43;61.00
30516;BME280;17297;54.022;10.760;2023-05-15T02:40:38;101284.41;;;15.42;60.79
30516;BME280;17297;54.022;10.760;2023-05-15T02:43:04;101272.97;;;15.40;60.87
30516;BME280;17297;54.022;10.760;2023-05-15T02:45:30;101268.78;;;15.37;60.87
30516;BME280;17297;54.022;10.760;2023-05-15T02:47:56;101269.03;;;15.36;60.71
30516;BME280;17297;54.022;10.760;2023-05-15T02:50:23;101263.38;;;15.31;60.69
30516;BME280;17297;54.022;10.760;2023-05-15T02:52:49;101259.22;;;15.28;60.82
30516;BME280;17297;54.022;10.760;2023-05-15T02:55:15;101257.75;;;15.25;60.85
30516;BME280;17297;54.022;10.760;2023-05-15T02:57:40;101253.00;;;15.21;60.73
30516;BME280;17297;54.022;10.760;2023-05-15T03:00:06;101248.81;;;15.18;60.65
30516;BME280;17297;54.022;10.760;2023-05-15T03:02:34;101245.69;;;15.15;60.73
30516;BME280;17297;54.022;10.760;2023-05-15T03:05:00;101245.06;;;15.13;60.93
30516;BME280;17297;54.022;10.760;2023-05-15T03:07:25;101251.75;;;15.10;60.79
30516;BME280;17297;54.022;10.760;2023-05-15T03:09:51;101246.53;;;15.09;60.95
30516;BME280;17297;54.022;10.760;2023-05-15T03:12:16;101244.25;;;15.06;60.85
30516;BME280;17297;54.022;10.760;2023-05-15T03:14:41;101248.84;;;15.05;60.90
30516;BME280;17297;54.022;10.760;2023-05-15T03:17:07;101242.59;;;15.05;60.86
30516;BME280;17297;54.022;10.760;2023-05-15T03:19:32;101237.38;;;15.03;60.97
30516;BME280;17297;54.022;10.760;2023-05-15T03:21:57;101235.50;;;15.04;60.96
30516;BME280;17297;54.022;10.760;2023-05-15T03:24:23;101231.97;;;15.03;60.83
30516;BME280;17297;54.022;10.760;2023-05-15T03:26:48;101236.31;;;15.04;60.90
30516;BME280;17297;54.022;10.760;2023-05-15T03:29:13;101233.84;;;15.02;nan
30516;BME280;17297;54.022;10.760;2023-05-15T03:31:39;101226.75;;;15.01;60.75
30516;BME280;17297;54.022;10.760;2023-05-15T03:34:04;101230.31;;;15.02;60.86
30516;BME280;17297;54.022;10.760;2023-05-15T03:36:29;101228.63;;;15.01;60.86
30516;BME280;17297;54.022;10.760;2023-05-15T03:38:55;101216.94;;;15.00;60.81
30516;BME280;17297;54.022;10.760;2023-05-15T03:41:20;101226.97;;;15.00;60.83
30516;BME280;17297;54.022;10.760;2023-05-15T03:43:46;101218.84;;;15.00;60.78
30516;BME280;17297;54.022;10.760;2023-05-15T03:46:11;101215.28;;;14.99;61.01
30516;BME280;17297;54.022;10.760;2023-05-15T03:48:39;101214.25;;;15.00;60.90
30516;BME280;17297;54.022;10.760;2023-05-15T03:51:04;101216.94;;;15.00;60.91
30516;BME280;17297;54.022;10.760;2023-05-15T03:53:30;101209.47;;;15.02;60.86
30516;BME280;17297;54.022;10.760;2023-05-15T03:55:55;101208.63;;;15.02;60.81
30516;BME280;17297;54.022;10.760;2023-05-15T03:58:21;101207.56;;;15.03;60.88
30516;BME280;17297;54.022;10.760;2023-05-15T04:00:48;101210.28;;;15.03;61.04
30516;BME280;17297;54.022;10.760;2023-05-15T04:03:13;101211.94;;;15.04;60.97
30516;BME280;17297;54.022;10.760;2023-05-15T04:05:38;101215.50;;;15.05;61.08
30516;BME280;17297;54.022;10.760;2023-05-15T04:08:04;101208.81;;;15.07;61.12
30516;BME280;17297;54.022;10.760;2023-05-15T04:10:30;101216.75;;;15.09;61.16
30516;BME280;17297;54.022;10.760;2023-05-15T04:12:56;101206.31;;;15.12;61.13
30516;BME280;17297;54.022;10.760;2023-05-15T04:15:23;101211.72;;;15.19;61.20
30516;BME280;17297;54.022;10.760;2023-05-15T04:17:51;101205.44;;;15.25;61.32
30516;BME280;17297;54.022;10.760;2023-05-15T04:20:19;101203.53;;;15.32;61.41
30516;BME280;17297;54.022;10.760;2023-05-15T04:22:45;101206.66;;;15.42;61.35
30516;BME280;17297;54.022;10.760;2023-05-15T04:25:11;101200.38;;;15.48;61.33
30516;BME280;17297;54.022;10.760;2023-05-15T04:27:37;101194.91;;;15.55;61.27
30516;BME280;17297;54.022;10.760;2023-05-15T04:30:04;101190.72;;;15.59;61.12
30516;BME280;17297;54.022;10.760;2023-05-15T04:32:30;101187.38;;;15.64;61.04
30516;BME280;17297;54.022;10.760;2023-05-15T04:34:55;101184.66;;;15.70;61.12
30516;BME280;17297;54.022;10.760;2023-05-15T04:37:21;101184.00;;;15.75;61.09
30516;BME280;17297;54.022;10.760;2023-05-15T04:39:46;101190.66;;;15.79;61.12
30516;BME280;17297;54.022;10.760;2023-05-15T04:42:11;101183.75;;;15.83;61.16
30516;BME280;17297;54.022;10.760;2023-05-15T04:44:36;101179.34;;;15.89;61.22
30516;BME280;17297;54.022;10.760;2023-05-15T04:47:02;101178.03;;;15.98;61.33
30516;BME280;17297;54.022;10.760;2023-05-15T04:49:27;101170.88;;;16.04;61.14
30516;BME280;17297;54.022;10.760;2023-05-15T04:51:53;101175.25;;;16.11;61.17
30516;BME280;17297;54.022;10.760;2023-05-15T04:54:18;101177.06;;;16.17;61.16
30516;BME280;17297;54.022;10.760;2023-05-15T04:56:44;101175.38;;;16.23;61.19
30516;BME280;17297;54.022;10.760;2023-05-15T04:59:09;101180.50;;;16.31;60.88
30516;BME280;17297;54.022;10.760;2023-05-15T05:01:35;101175.22;;;16.43;60.86
30516;BME280;17297;54.022;10.760;2023-05-15T05:04:01;101178.59;;;16.63;60.91
30516;BME280;17297;54.022;10.760;2023-05-15T05:06:26;101178.91;;;16.99;60.78
30516;BME280;17297;54.022;10.760;2023-05-15T05:08:52;101176.69;;;17.44;60.44
30516;BME280;17297;54.022;10.760;2023-05-15T05:11:17;101178.78;;;17.97;59.97
30516;BME280;17297;54.022;10.760;2023-05-15T05:13:42;101178.28;;;18.42;59.27
30516;BME280;17297;54.022;10.760;2023-05-15T05:16:08;101159.84;;;18.80;58.77
30516;BME280;17297;54.022;10.760;2023-05-15T05:18:33;101162.06;;;19.18;58.15
30516;BME280;17297;54.022;10.760;2023-05-15T05:21:02;101160.34;;;19.41;57.70
30516;BME280;17297;54.022;10.760;2023-05-15T05:23:28;101160.50;;;19.74;57.20
30516;BME280;17297;54.022;10.760;2023-05-15T05:25:53;101147.94;;;20.19;57.01
30516;BME280;17297;54.022;10.760;2023-05-15T05:28:19;101146.22;;;20.63;56.70
30516;BME280;17297;54.022;10.760;2023-05-15T05:30:45;101147.28;;;21.01;56.00
30516;BME280;17297;54.022;10.760;2023-05-15T05:33:10;101144.75;;;21.16;55.24
30516;BME280;17297;54.022;10.760;2023-05-15T05:35:36;101152.66;;;21.13;54.64
30516;BME280;17297;54.022;10.760;2023-05-15T05:38:01;101154.09;;;20.98;54.73
30516;BME280;17297;54.022;10.760;2023-05-15T05:40:26;101152.16;;;20.77;54.53
30516;BME280;17297;54.022;10.760;2023-05-15T05:42:52;101150.91;;;20.51;54.19
30516;BME280;17297;54.022;10.760;2023-05-15T05:45:17;101159.50;;;20.26;54.33
30516;BME280;17297;54.022;10.760;2023-05-15T05:47:43;101163.19;;;20.03;54.45
30516;BME280;17297;54.022;10.760;2023-05-15T05:50:08;101162.25;;;19.80;54.66
30516;BME280;17297;54.022;10.760;2023-05-15T05:52:33;101157.22;;;19.60;54.68
30516;BME280;17297;54.022;10.760;2023-05-15T05:54:59;101161.19;;;19.41;54.60
30516;BME280;17297;54.022;10.760;2023-05-15T05:57:24;101160.63;;;19.27;54.97
30516;BME280;17297;54.022;10.760;2023-05-15T05:59:50;101155.66;;;19.12;55.07
30516;BME280;17297;54.022;10.760;2023-05-15T06:02:15;101152.38;;;18.99;55.03
30516;BME280;17297;54.022;10.760;2023-05-15T06:04:40;101158.31;;;18.84;55.12
30516;BME280;17297;54.022;10.760;2023-05-15T06:07:06;101166.09;;;18.68;54.83
30516;BME280;17297;54.022;10.760;2023-05-15T06:09:31;101160.75;;;18.50;55.04
30516;BME280;17297;54.022;10.760;2023-05-15T06:11:56;101164.78;;;18.36;55.11
30516;BME280;17297;54.022;10.760;2023-05-15T06:14:22;101159.75;;;18.21;55.26
30516;BME280;17297;54.022;10.760;2023-05-15T06:16:47;101158.09;;;18.08;55.33
30516;BME280;17297;54.022;10.760;2023-05-15T06:19:13;101160.56;;;17.98;55.61
30516;BME280;17297;54.022;10.760;2023-05-15T06:21:38;101157.53;;;17.88;55.67
30516;BME280;17297;54.022;10.760;2023-05-15T06:24:03;101152.81;;;17.83;55.94
30516;BME280;17297;54.022;10.760;2023-05-15T06:26:29;101151.38;;;17.81;55.94
30516;BME280;17297;54.022;10.760;2023-05-15T06:28:54;101148.28;;;17.77;56.11
30516;BME280;17297;54.022;10.760;2023-05-15T06:31:19;101152.72;;;17.71;56.00
30516;BME280;17297;54.022;10.760;2023-05-15T06:33:45;101149.63;;;17.68;56.10
30516;BME280;17297;54.022;10.760;2023-05-15T06:36:10;101150.09;;;17.65;56.16
30516;BME280;17297;54.022;10.760;2023-05-15T06:38:36;101148.91;;;17.61;56.13
30516;BME280;17297;54.022;10.760;2023-05-15T06:41:01;101148.06;;;17.60;56.39
30516;BME280;17297;54.022;10.760;2023-05-15T06:43:26;101151.63;;;17.61;56.40
30516;BME280;17297;54.022;10.760;2023-05-15T06:45:52;101139.66;;;17.62;56.38
30516;BME280;17297;54.022;10.760;2023-05-15T06:48:17;101143.00;;;17.64;56.32
30516;BME280;17297;54.022;10.760;2023-05-15T06:50:42;101137.09;;;17.67;56.50
30516;BME280;17297;54.022;10.760;2023-05-15T06:53:08;101139.94;;;17.72;56.36
30516;BME280;17297;54.022;10.760;2023-05-15T06:55:33;101131.50;;;17.80;56.40
30516;BME280;17297;54.022;10.760;2023-05-15T06:58:00;101127.13;;;17.91;56.47
30516;BME280;17297;54.022;10.760;2023-05-15T07:00:26;101126.56;;;18.00;56.38
30516;BME280;17297;54.022;10.760;2023-05-15T07:02:51;101130.41;;;18.11;55.96
30516;BME280;17297;54.022;10.760;2023-05-15T07:05:16;101120.81;;;18.20;55.71
30516;BME280;17297;54.022;10.760;2023-05-15T07:07:42;101119.63;;;18.28;55.62
30516;BME280;17297;54.022;10.760;2023-05-15T07:10:07;101126.41;;;18.37;55.45
30516;BME280;17297;54.022;10.760;2023-05-15T07:12:33;101123.56;;;18.44;55.08
30516;BME280;17297;54.022;10.760;2023-05-15T07:14:58;101120.75;;;18.51;55.24
30516;BME280;17297;54.022;10.760;2023-05-15T07:17:24;101114.34;;;18.57;54.89
30516;BME280;17297;54.022;10.760;2023-05-15T07:19:49;101113.75;;;18.66;54.80
30516;BME280;17297;54.022;10.760;2023-05-15T07:22:15;101109.22;;;18.72;54.50
30516;BME280;17297;54.022;10.760;2023-05-15T07:24:40;101105.34;;;18.80;54.84
30516;BME280;17297;54.022;10.760;2023-05-15T07:27:05;101101.66;;;18.86;54.71
30516;BME280;17297;54.022;10.760;2023-05-15T07:29:31;101104.03;;;18.94;54.49
30516;BME280;17297;54.022;10.760;2023-05-15T07:31:56;101103.41;;;19.04;54.28
30516;BME280;17297;54.022;10.760;2023-05-15T07:34:21;101106.56;;;19.12;54.13
30516;BME280;17297;54.022;10.760;2023-05-15T07:36:47;101108.13;;;19.20;54.23
30516;BME280;17297;54.022;10.760;2023-05-15T07:39:13;101098.72;;;19.28;54.24
30516;BME280;17297;54.022;10.760;2023-05-15T07:41:38;101096.91;;;19.33;53.86
30516;BME280;17297;54.022;10.760;2023-05-15T07:44:03;101095.34;;;19.37;54.00
30516;BME280;17297;54.022;10.760;2023-05-15T07:46:29;101086.19;;;19.44;54.00
30516;BME280;17297;54.022;10.760;2023-05-15T07:48:54;101079.28;;;19.53;53.86
30516;BME280;17297;54.022;10.760;2023-05-15T07:51:19;101086.75;;;19.57;53.90
30516;BME280;17297;54.022;10.760;2023-05-15T07:53:45;101087.56;;;19.58;53.89
30516;BME280;17297;54.022;10.760;2023-05-15T07:56:10;101088.31;;;19.53;53.83
30516;BME280;17297;54.022;10.760;2023-05-15T07:58:36;101084.41;;;19.49;54.25
30516;BME280;17297;54.022;10.760;2023-05-15T08:01:03;101081.81;;;19.43;53.80
30516;BME280;17297;54.022;10.760;2023-05-15T08:03:28;101081.50;;;19.39;54.06
30516;BME280;17297;54.022;10.760;2023-05-15T08:05:53;101084.22;;;19.39;53.91
30516;BME280;17297;54.022;10.760;2023-05-15T08:08:19;101079.34;;;19.41;53.90
30516;BME280;17297;54.022;10.760;2023-05-15T08:10:44;101076.13;;;19.44;53.16
30516;BME280;17297;54.022;10.760;2023-05-15T08:13:10;101069.81;;;19.44;53.02
30516;BME280;17297;54.022;10.760;2023-05-15T08:15:35;101073.16;;;19.46;52.62
30516;BME280;17297;54.022;10.760;2023-05-15T08:18:00;101073.41;;;19.44;53.04
30516;BME280;17297;54.022;10.760;2023-05-15T08:20:25;101061.91;;;19.42;52.98
30516;BME280;17297;54.022;10.760;2023-05-15T08:22:51;101065.44;;;19.43;52.79
30516;BME280;17297;54.022;10.760;2023-05-15T08:25:16;101063.31;;;19.45;52.47
30516;BME280;17297;54.022;10.760;2023-05-15T08:27:42;101057.38;;;19.48;52.32
30516;BME280;17297;54.022;10.760;2023-05-15T08:30:07;101062.56;;;19.49;52.11
30516;BME280;17297;54.022;10.760;2023-05-15T08:32:33;101057.94;;;19.50;52.51
30516;BME280;17297;54.022;10.760;2023-05-15T08:34:58;101058.31;;;19.53;52.71
30516;BME280;17297;54.022;10.760;2023-05-15T08:37:24;101049.13;;;19.59;52.37
30516;BME280;17297;54.022;10.760;2023-05-15T08:39:49;101049.25;;;19.65;52.49
30516;BME280;17297;54.022;10.760;2023-05-15T08:42:34;101051.47;;;19.68;52.32
30516;BME280;17297;54.022;10.760;2023-05-15T08:45:01;101054.03;;;19.74;52.32
30516;BME280;17297;54.022;10.760;2023-05-15T08:47:27;101052.25;;;19.80;52.30
30516;BME280;17297;54.022;10.760;2023-05-15T08:50:10;101052.34;;;19.85;52.11
30516;BME280;17297;54.022;10.760;2023-05-15T08:52:44;101046.38;;;19.88;52.23
30516;BME280;17297;54.022;10.760;2023-05-15T08:55:12;101044.22;;;19.90;52.24
30516;BME280;17297;54.022;10.760;2023-05-15T08:57:38;101044.56;;;19.94;51.91
30516;BME280;17297;54.022;10.760;2023-05-15T09:00:04;101043.47;;;19.95;51.76
30516;BME280;17297;54.022;10.760;2023-05-15T09:02:36;101038.84;;;19.95;51.58
30516;BME280;17297;54.022;10.760;2023-05-15T09:05:02;101037.53;;;19.98;52.01
30516;BME280;17297;54.022;10.760;2023-05-15T09:07:31;101034.84;;;20.03;52.06
30516;BME280;17297;54.022;10.760;2023-05-15T09:09:57;101036.53;;;20.04;52.15
30516;BME280;17297;54.022;10.760;2023-05-15T09:12:26;101034.84;;;20.03;52.63
30516;BME280;17297;54.022;10.760;2023-05-15T09:15:10;101038.19;;;20.05;53.36
30516;BME280;17297;54.022;10.760;2023-05-15T09:17:36;101039.00;;;20.05;53.36
30516;BME280;17297;54.022;10.760;2023-05-15T09:20:02;101034.63;;;20.04;53.17
30516;BME280;17297;54.022;10.760;2023-05-15T09:22:34;101035.72;;;20.03;53.00
30516;BME280;17297;54.022;10.760;2023-05-15T09:25:00;101030.75;;;20.00;53.10
30516;BME280;17297;54.022;10.760;2023-05-15T09:27:27;101030.16;;;19.98;53.15
30516;BME280;17297;54.022;10.760;2023-05-15T09:29:52;101027.94;;;19.95;53.38
30516;BME280;17297;54.022;10.760;2023-05-15T09:32:20;101023.28;;;19.96;53.04
30516;BME280;17297;54.022;10.760;2023-05-15T09:34:45;101036.38;;;19.94;53.24
30516;BME280;17297;54.022;10.760;2023-05-15T09:37:28;101028.69;;;19.91;53.39
30516;BME280;17297;54.022;10.760;2023-05-15T09:39:54;101026.44;;;19.88;53.21
30516;BME280;17297;54.022;10.760;2023-05-15T09:42:19;101032.91;;;19.81;53.69
30516;BME280;17297;54.022;10.760;2023-05-15T09:44:45;101039.00;;;19.72;53.76
30516;BME280;17297;54.022;10.760;2023-05-15T09:47:14;101030.75;;;19.55;53.70
30516;BME280;17297;54.022;10.760;2023-05-15T09:49:43;101035.72;;;19.41;53.53
30516;BME280;17297;54.022;10.760;2023-05-15T09:52:09;101027.31;;;19.31;53.56
30516;BME280;17297;54.022;10.760;2023-05-15T09:54:35;101028.88;;;19.27;53.64
30516;BME280;17297;54.022;10.760;2023-05-15T09:57:09;101025.56;;;19.25;54.01
30516;BME280;17297;54.022;10.760;2023-05-15T09:59:34;101027.56;;;19.29;54.12
30516;BME280;17297;54.022;10.760;2023-05-15T10:02:00;101023.28;;;19.33;54.28
30516;BME280;17297;54.022;10.760;2023-05-15T10:04:25;101018.16;;;19.37;53.84
30516;BME280;17297;54.022;10.760;2023-05-15T10:06:51;101016.03;;;19.39;54.11
30516;BME280;17297;54.022;10.760;2023-05-15T10:09:17;101017.78;;;19.45;54.25
30516;BME280;17297;54.022;10.760;2023-05-15T10:11:46;101012.91;;;19.47;54.02
30516;BME280;17297;54.022;10.760;2023-05-15T10:14:14;101009.59;;;19.45;54.01
30516;BME280;17297;54.022;10.760;2023-05-15T10:16:41;101015.19;;;19.38;53.76
30516;BME280;17297;54.022;10.760;2023-05-15T10:19:10;101017.09;;;19.38;54.19
30516;BME280;17297;54.022;10.760;2023-05-15T10:21:38;101011.66;;;19.38;54.11
30516;BME280;17297;54.022;10.760;2023-05-15T10:24:04;101017.59;;;19.35;53.82
30516;BME280;17297;54.022;10.760;2023-05-15T10:26:40;101007.81;;;19.22;53.98
30516;BME280;17297;54.022;10.760;2023-05-15T10:29:11;101004.38;;;19.15;54.13
30516;BME280;17297;54.022;10.760;2023-05-15T10:31:38;100996.13;;;19.10;54.16
30516;BME280;17297;54.022;10.760;2023-05-15T10:34:04;100997.19;;;19.09;54.38
30516;BME280;17297;54.022;10.760;2023-05-15T10:36:30;100999.34;;;19.07;54.13
30516;BME280;17297;54.022;10.760;2023-05-15T10:38:58;101000.66;;;19.04;54.65
30516;BME280;17297;54.022;10.760;2023-05-15T10:41:25;100989.16;;;19.02;54.48
30516;BME280;17297;54.022;10.760;2023-05-15T10:43:52;100998.16;;;19.03;54.36
30516;BME280;17297;54.022;10.760;2023-05-15T10:46:19;100992.34;;;18.99;54.38
30516;BME280;17297;54.022;10.760;2023-05-15T10:48:45;100993.66;;;18.97;54.76
30516;BME280;17297;54.022;10.760;2023-05-15T10:51:14;101000.44;;;18.94;54.84
30516;BME280;17297;54.022;10.760;2023-05-15T10:53:41;100999.38;;;18.95;54.63
30516;BME280;17297;54.022;10.760;2023-05-15T10:56:14;100987.88;;;18.93;54.73
30516;BME280;17297;54.022;10.760;2023-05-15T10:58:50;100993.59;;;18.91;54.80
30516;BME280;17297;54.022;10.760;2023-05-15T11:01:29;100984.44;;;18.98;54.65
30516;BME280;17297;54.022;10.760;2023-05-15T11:06:31;100979.81;;;18.98;55.22
30516;BME280;17297;54.022;10.760;2023-05-15T11:09:32;100983.34;;;18.99;55.15
30516;BME280;17297;54.022;10.760;2023-05-15T11:12:00;100981.44;;;18.99;55.09
30516;BME280;17297;54.022;10.760;2023-05-15T11:14:26;100976.25;;;18.98;55.41
30516;BME280;17297;54.022;10.760;2023-05-15T11:19:21;100983.09;;;19.00;55.11
30516;BME280;17297;54.022;10.760;2023-05-15T11:21:47;100974.69;;;19.02;55.24
30516;BME280;17297;54.022;10.760;2023-05-15T11:24:12;100976.09;;;19.04;55.27
30516;BME280;17297;54.022;10.760;2023-05-15T11:26:40;100972.56;;;19.04;55.40
30516;BME280;17297;54.022;10.760;2023-05-15T11:29:17;100969.47;;;19.00;55.18
30516;BME280;17297;54.022;10.760;2023-05-15T11:31:42;100975.78;;;19.01;55.38
30516;BME280;17297;54.022;10.760;2023-05-15T11:34:08;100976.25;;;18.98;55.28
30516;BME280;17297;54.022;10.760;2023-05-15T11:36:36;100973.41;;;18.92;55.31
30516;BME280;17297;54.022;10.760;2023-05-15T11:39:09;100968.22;;;18.91;55.55
30516;BME280;17297;54.022;10.760;2023-05-15T11:41:35;100965.72;;;18.89;55.44
30516;BME280;17297;54.022;10.760;2023-05-15T11:44:01;100965.41;;;18.86;55.62
30516;BME280;17297;54.022;10.760;2023-05-15T11:46:27;100976.78;;;18.83;55.38
30516;BME280;17297;54.022;10.760;2023-05-15T11:48:53;100961.41;;;18.77;55.81
30516;BME280;17297;54.022;10.760;2023-05-15T11:51:21;100960.22;;;18.73;55.67
30516;BME280;17297;54.022;10.760;2023-05-15T11:53:51;100955.47;;;18.68;55.87
30516;BME280;17297;54.022;10.760;2023-05-15T11:56:22;100963.28;;;18.64;55.90
30516;BME280;17297;54.022;10.760;2023-05-15T11:58:49;100959.16;;;18.62;55.71
30516;BME280;17297;54.022;10.760;2023-05-15T12:01:14;100962.13;;;18.60;55.90
30516;BME280;17297;54.022;10.760;2023-05-15T12:03:40;100955.00;;;18.59;55.82
30516;BME280;17297;54.022;10.760;2023-05-15T12:06:06;100967.25;;;18.57;56.22
30516;BME280;17297;54.022;10.760;2023-05-15T12:08:35;100966.03;;;18.53;55.93
30516;BME280;17297;54.022;10.760;2023-05-15T12:11:02;100962.97;;;18.49;56.04
30516;BME280;17297;54.022;10.760;2023-05-15T12:13:29;100960.97;;;18.44;56.29
30516;BME280;17297;54.022;10.760;2023-05-15T12:15:55;100950.56;;;18.41;56.66
30516;BME280;17297;54.022;10.760;2023-05-15T12:18:21;100956.25;;;18.40;56.59
30516;BME280;17297;54.022;10.760;2023-05-15T12:20:46;100951.63;;;18.40;56.88
30516;BME280;17297;54.022;10.760;2023-05-15T12:23:15;100939.06;;;18.39;56.79
30516;BME280;17297;54.022;10.760;2023-05-15T12:25:42;100950.19;;;18.38;56.96
30516;BME280;17297;54.022;10.760;2023-05-15T12:28:08;100952.09;;;18.37;57.09
30516;BME280;17297;54.022;10.760;2023-05-15T12:30:35;100951.53;;;18.35;57.05
30516;BME280;17297;54.022;10.760;2023-05-15T12:33:06;100953.66;;;18.33;57.27
30516;BME280;17297;54.022;10.760;2023-05-15T12:35:32;100959.69;;;18.35;57.30
30516;BME280;17297;54.022;10.760;2023-05-15T12:37:59;100955.28;;;18.34;57.46
30516;BME280;17297;54.022;10.760;2023-05-15T12:40:26;100955.28;;;18.34;57.72
30516;BME280;17297;54.022;10.760;2023-05-15T12:42:53;100951.75;;;18.34;57.93
30516;BME280;17297;54.022;10.760;2023-05-15T12:45:19;100949.84;;;18.34;57.70
30516;BME280;17297;54.022;10.760;2023-05-15T12:47:47;100950.69;;;18.35;57.81
30516;BME280;17297;54.022;10.760;2023-05-15T12:50:18;100940.97;;;18.39;58.08
30516;BME280;17297;54.022;10.760;2023-05-15T12:52:54;100942.16;;;18.43;58.13
30516;BME280;17297;54.022;10.760;2023-05-15T12:55:23;100936.06;;;18.53;57.41
30516;BME280;17297;54.022;10.760;2023-05-15T12:57:52;100931.81;;;18.57;57.77
30516;BME280;17297;54.022;10.760;2023-05-15T13:00:18;100928.69;;;18.65;57.45